sensor_id;sensor_type;location;lat;lon;timestamp;P1;durP1;ratioP1;P2;durP2;ratioP2
48361;SDS011;34510;51.888;5.670;2023-04-01T00:03:20;770.83;;;523.22;;
48361;SDS011;34510;51.888;5.670;2023-04-01T00:08:24;765.90;;;495.23;;
48361;SDS011;34510;51.888;5.670;2023-04-01T00:13:27;767.40;;;511.17;;
48361;SDS011;34510;51.888;5.670;2023-04-01T00:18:29;768.58;;;509.73;;
48361;SDS011;34510;51.888;5.670;2023-04-01T00:23:32;766.58;;;503.77;;
48361;SDS011;34510;51.888;5.670;2023-04-01T00:28:34;774.20;;;523.72;;
48361;SDS011;34510;51.888;5.670;2023-04-01T00:33:37;765.83;;;507.80;;
48361;SDS011;34510;51.888;5.670;2023-04-01T00:38:40;769.25;;;510.30;;
48361;SDS011;34510;51.888;5.670;2023-04-01T00:43:45;779.33;;;537.13;;
48361;SDS011;34510;51.888;5.670;2023-04-01T00:48:53;774.05;;;523.03;;
48361;SDS011;34510;51.888;5.670;2023-04-01T00:53:57;768.70;;;503.75;;
48361;SDS011;34510;51.888;5.670;2023-04-01T00:59:06;768.30;;;507.77;;
48361;SDS011;34510;51.888;5.670;2023-04-01T01:04:25;763.45;;;498.60;;
48361;SDS011;34510;51.888;5.670;2023-04-01T01:09:44;767.45;;;507.60;;
48361;SDS011;34510;51.888;5.670;2023-04-01T01:15:13;771.13;;;513.75;;
48361;SDS011;34510;51.888;5.670;2023-04-01T01:25:49;774.30;;;522.33;;
48361;SDS011;34510;51.888;5.670;2023-04-01T01:36:38;769.30;;;516.47;;
48361;SDS011;34510;51.888;5.670;2023-04-01T01:41:44;768.90;;;511.42;;
48361;SDS011;34510;51.888;5.670;2023-04-01T01:46:50;782.60;;;542.90;;
48361;SDS011;34510;51.888;5.670;2023-04-01T01:51:52;774.33;;;514.60;;
48361;SDS011;34510;51.888;5.670;2023-04-01T01:57:01;764.97;;;486.88;;
48361;SDS011;34510;51.888;5.670;2023-04-01T02:02:08;765.55;;;504.20;;
48361;SDS011;34510;51.888;5.670;2023-04-01T02:07:14;766.88;;;505.50;;
48361;SDS011;34510;51.888;5.670;2023-04-01T02:12:27;763.85;;;501.20;;
48361;SDS011;34510;51.888;5.670;2023-04-01T02:17:30;776.08;;;516.83;;
48361;SDS011;34510;51.888;5.670;2023-04-01T02:22:38;770.95;;;501.50;;
48361;SDS011;34510;51.888;5.670;2023-04-01T02:27:44;773.83;;;524.65;;
48361;SDS011;34510;51.888;5.670;2023-04-01T02:32:47;767.65;;;511.80;;
48361;SDS011;34510;51.888;5.670;2023-04-01T02:37:50;763.30;;;502.08;;
48361;SDS011;34510;51.888;5.670;2023-04-01T02:42:54;762.05;;;494.45;;
48361;SDS011;34510;51.888;5.670;2023-04-01T02:47:56;766.88;;;500.95;;
48361;SDS011;34510;51.888;5.670;2023-04-01T02:52:58;762.35;;;500.17;;
48361;SDS011;34510;51.888;5.670;2023-04-01T02:57:59;760.25;;;495.33;;
48361;SDS011;34510;51.888;5.670;2023-04-01T03:03:04;771.17;;;516.35;;
48361;SDS011;34510;51.888;5.670;2023-04-01T03:08:06;762.42;;;496.15;;
48361;SDS011;34510;51.888;5.670;2023-04-01T03:13:08;764.95;;;496.65;;
48361;SDS011;34510;51.888;5.670;2023-04-01T03:18:11;761.47;;;493.10;;
48361;SDS011;34510;51.888;5.670;2023-04-01T03:23:13;762.17;;;495.75;;
48361;SDS011;34510;51.888;5.670;2023-04-01T03:28:15;762.85;;;491.20;;
48361;SDS011;34510;51.888;5.670;2023-04-01T03:33:17;767.63;;;501.13;;
48361;SDS011;34510;51.888;5.670;2023-04-01T03:38:19;763.90;;;501.33;;
48361;SDS011;34510;51.888;5.670;2023-04-01T03:43:21;758.58;;;487.38;;
48361;SDS011;34510;51.888;5.670;2023-04-01T03:48:25;758.65;;;492.75;;
48361;SDS011;34510;51.888;5.670;2023-04-01T03:53:28;762.78;;;499.08;;
48361;SDS011;34510;51.888;5.670;2023-04-01T03:58:33;763.53;;;492.05;;
48361;SDS011;34510;51.888;5.670;2023-04-01T04:03:37;765.55;;;490.17;;
48361;SDS011;34510;51.888;5.670;2023-04-01T04:08:40;765.08;;;503.42;;
48361;SDS011;34510;51.888;5.670;2023-04-01T04:13:42;766.47;;;489.48;;
48361;SDS011;34510;51.888;5.670;2023-04-01T04:18:44;765.63;;;480.00;;
48361;SDS011;34510;51.888;5.670;2023-04-01T04:23:47;753.83;;;474.08;;
48361;SDS011;34510;51.888;5.670;2023-04-01T04:28:53;767.67;;;499.65;;
48361;SDS011;34510;51.888;5.670;2023-04-01T04:33:55;760.25;;;483.13;;
48361;SDS011;34510;51.888;5.670;2023-04-01T04:38:57;760.08;;;461.52;;
48361;SDS011;34510;51.888;5.670;2023-04-01T04:44:03;759.78;;;474.60;;
48361;SDS011;34510;51.888;5.670;2023-04-01T04:49:06;754.92;;;461.58;;
48361;SDS011;34510;51.888;5.670;2023-04-01T04:54:08;765.38;;;477.73;;
48361;SDS011;34510;51.888;5.670;2023-04-01T04:59:32;759.83;;;491.67;;
48361;SDS011;34510;51.888;5.670;2023-04-01T05:04:47;768.47;;;501.35;;
48361;SDS011;34510;51.888;5.670;2023-04-01T05:09:49;767.13;;;494.33;;
48361;SDS011;34510;51.888;5.670;2023-04-01T05:14:51;762.50;;;488.90;;
48361;SDS011;34510;51.888;5.670;2023-04-01T05:19:53;760.60;;;482.77;;
48361;SDS011;34510;51.888;5.670;2023-04-01T05:24:55;758.42;;;484.85;;
48361;SDS011;34510;51.888;5.670;2023-04-01T05:29:57;766.15;;;503.00;;
48361;SDS011;34510;51.888;5.670;2023-04-01T05:35:18;760.75;;;499.13;;
48361;SDS011;34510;51.888;5.670;2023-04-01T05:40:20;763.83;;;493.95;;
48361;SDS011;34510;51.888;5.670;2023-04-01T05:45:23;764.05;;;492.35;;
48361;SDS011;34510;51.888;5.670;2023-04-01T05:50:33;762.22;;;495.95;;
48361;SDS011;34510;51.888;5.670;2023-04-01T05:55:36;763.17;;;508.10;;
48361;SDS011;34510;51.888;5.670;2023-04-01T06:00:39;764.05;;;506.50;;
48361;SDS011;34510;51.888;5.670;2023-04-01T06:05:42;761.35;;;503.92;;
48361;SDS011;34510;51.888;5.670;2023-04-01T06:32:43;767.63;;;516.55;;
48361;SDS011;34510;51.888;5.670;2023-04-01T06:38:04;769.30;;;509.75;;
48361;SDS011;34510;51.888;5.670;2023-04-01T06:43:16;776.72;;;520.35;;
48361;SDS011;34510;51.888;5.670;2023-04-01T06:48:53;774.28;;;508.13;;
48361;SDS011;34510;51.888;5.670;2023-04-01T06:55:02;776.15;;;521.03;;
48361;SDS011;34510;51.888;5.670;2023-04-01T07:01:07;776.58;;;529.40;;
48361;SDS011;34510;51.888;5.670;2023-04-01T07:06:31;772.78;;;518.20;;
48361;SDS011;34510;51.888;5.670;2023-04-01T07:11:38;775.78;;;525.55;;
48361;SDS011;34510;51.888;5.670;2023-04-01T07:17:09;773.72;;;515.78;;
48361;SDS011;34510;51.888;5.670;2023-04-01T07:28:00;771.13;;;507.25;;
48361;SDS011;34510;51.888;5.670;2023-04-01T07:33:16;770.38;;;509.42;;
48361;SDS011;34510;51.888;5.670;2023-04-01T07:44:10;774.70;;;523.55;;
48361;SDS011;34510;51.888;5.670;2023-04-01T07:49:57;774.17;;;525.30;;
48361;SDS011;34510;51.888;5.670;2023-04-01T08:05:27;770.65;;;522.35;;
48361;SDS011;34510;51.888;5.670;2023-04-01T08:21:41;769.72;;;507.33;;
48361;SDS011;34510;51.888;5.670;2023-04-01T08:26:48;764.05;;;494.77;;
48361;SDS011;34510;51.888;5.670;2023-04-01T08:37:31;768.45;;;524.22;;
48361;SDS011;34510;51.888;5.670;2023-04-01T08:47:55;768.85;;;527.30;;
48361;SDS011;34510;51.888;5.670;2023-04-01T08:53:13;770.42;;;525.40;;
48361;SDS011;34510;51.888;5.670;2023-04-01T08:58:37;776.95;;;525.03;;
48361;SDS011;34510;51.888;5.670;2023-04-01T09:15:34;781.33;;;542.33;;
48361;SDS011;34510;51.888;5.670;2023-04-01T09:27:03;776.95;;;551.30;;
48361;SDS011;34510;51.888;5.670;2023-04-01T10:15:43;777.42;;;527.58;;
48361;SDS011;34510;51.888;5.670;2023-04-01T10:21:07;785.40;;;542.58;;
48361;SDS011;34510;51.888;5.670;2023-04-01T10:42:55;787.47;;;571.08;;
48361;SDS011;34510;51.888;5.670;2023-04-01T11:05:26;785.05;;;569.20;;
48361;SDS011;34510;51.888;5.670;2023-04-01T11:27:44;801.80;;;666.10;;
48361;SDS011;34510;51.888;5.670;2023-04-01T11:54:06;805.20;;;670.17;;
48361;SDS011;34510;51.888;5.670;2023-04-01T12:05:08;794.33;;;652.72;;
48361;SDS011;34510;51.888;5.670;2023-04-01T13:04:22;788.20;;;623.67;;
48361;SDS011;34510;51.888;5.670;2023-04-01T13:30:26;778.53;;;605.78;;
48361;SDS011;34510;51.888;5.670;2023-04-01T13:35:36;788.00;;;619.97;;
48361;SDS011;34510;51.888;5.670;2023-04-01T13:40:45;789.22;;;641.17;;
48361;SDS011;34510;51.888;5.670;2023-04-01T13:56:44;784.63;;;620.90;;
48361;SDS011;34510;51.888;5.670;2023-04-01T14:02:01;783.28;;;620.42;;
48361;SDS011;34510;51.888;5.670;2023-04-01T14:17:55;786.67;;;612.90;;
48361;SDS011;34510;51.888;5.670;2023-04-01T14:23:17;791.13;;;605.58;;
48361;SDS011;34510;51.888;5.670;2023-04-01T14:45:07;796.92;;;620.55;;
48361;SDS011;34510;51.888;5.670;2023-04-01T14:50:26;780.33;;;587.33;;
48361;SDS011;34510;51.888;5.670;2023-04-01T14:55:36;787.38;;;606.83;;
48361;SDS011;34510;51.888;5.670;2023-04-01T15:48:50;789.35;;;610.58;;
48361;SDS011;34510;51.888;5.670;2023-04-01T15:54:32;794.00;;;633.33;;
48361;SDS011;34510;51.888;5.670;2023-04-01T16:11:06;775.42;;;620.22;;
48361;SDS011;34510;51.888;5.670;2023-04-01T16:32:35;776.03;;;593.38;;
48361;SDS011;34510;51.888;5.670;2023-04-01T16:38:09;773.28;;;596.92;;
48361;SDS011;34510;51.888;5.670;2023-04-01T16:43:21;774.45;;;574.83;;
48361;SDS011;34510;51.888;5.670;2023-04-01T16:59:47;771.15;;;556.88;;
48361;SDS011;34510;51.888;5.670;2023-04-01T17:04:58;771.67;;;565.47;;
48361;SDS011;34510;51.888;5.670;2023-04-01T17:15:54;777.00;;;568.00;;
48361;SDS011;34510;51.888;5.670;2023-04-01T17:21:00;772.08;;;551.97;;
48361;SDS011;34510;51.888;5.670;2023-04-01T17:26:16;770.00;;;546.83;;
48361;SDS011;34510;51.888;5.670;2023-04-01T17:42:15;764.75;;;518.40;;
48361;SDS011;34510;51.888;5.670;2023-04-01T17:52:39;767.83;;;530.08;;
48361;SDS011;34510;51.888;5.670;2023-04-01T18:14:17;770.60;;;506.98;;
48361;SDS011;34510;51.888;5.670;2023-04-01T18:30:17;768.15;;;499.15;;
48361;SDS011;34510;51.888;5.670;2023-04-01T18:35:47;767.50;;;494.00;;
48361;SDS011;34510;51.888;5.670;2023-04-01T18:40:56;764.15;;;507.70;;
48361;SDS011;34510;51.888;5.670;2023-04-01T18:46:16;762.83;;;495.15;;
48361;SDS011;34510;51.888;5.670;2023-04-01T18:51:40;765.30;;;490.50;;
48361;SDS011;34510;51.888;5.670;2023-04-01T18:56:49;765.53;;;485.77;;
48361;SDS011;34510;51.888;5.670;2023-04-01T19:40:16;765.35;;;466.02;;
48361;SDS011;34510;51.888;5.670;2023-04-01T19:45:26;757.55;;;465.10;;
48361;SDS011;34510;51.888;5.670;2023-04-01T19:50:38;748.78;;;450.05;;
48361;SDS011;34510;51.888;5.670;2023-04-01T19:55:59;769.63;;;469.88;;
48361;SDS011;34510;51.888;5.670;2023-04-01T20:01:27;747.67;;;436.25;;
48361;SDS011;34510;51.888;5.670;2023-04-01T20:28:05;756.97;;;461.20;;
48361;SDS011;34510;51.888;5.670;2023-04-01T20:44:36;750.83;;;436.48;;
48361;SDS011;34510;51.888;5.670;2023-04-01T20:50:00;750.95;;;427.25;;
48361;SDS011;34510;51.888;5.670;2023-04-01T20:55:38;749.97;;;420.52;;
48361;SDS011;34510;51.888;5.670;2023-04-01T21:01:09;749.90;;;428.15;;
48361;SDS011;34510;51.888;5.670;2023-04-01T21:11:37;753.75;;;433.05;;
48361;SDS011;34510;51.888;5.670;2023-04-01T21:16:53;748.47;;;425.23;;
48361;SDS011;34510;51.888;5.670;2023-04-01T21:22:31;746.40;;;411.35;;
48361;SDS011;34510;51.888;5.670;2023-04-01T21:43:37;748.25;;;405.67;;
48361;SDS011;34510;51.888;5.670;2023-04-01T22:00:30;748.80;;;411.25;;
48361;SDS011;34510;51.888;5.670;2023-04-01T22:05:42;746.95;;;407.98;;
48361;SDS011;34510;51.888;5.670;2023-04-01T22:26:50;741.73;;;414.87;;
48361;SDS011;34510;51.888;5.670;2023-04-01T22:32:00;739.75;;;387.95;;
48361;SDS011;34510;51.888;5.670;2023-04-01T22:42:44;735.97;;;398.90;;
48361;SDS011;34510;51.888;5.670;2023-04-01T22:47:57;738.47;;;386.42;;
48361;SDS011;34510;51.888;5.670;2023-04-01T22:58:31;739.33;;;398.20;;
48361;SDS011;34510;51.888;5.670;2023-04-01T23:03:39;736.55;;;378.38;;
48361;SDS011;34510;51.888;5.670;2023-04-01T23:14:05;743.88;;;375.08;;
48361;SDS011;34510;51.888;5.670;2023-04-01T23:30:45;751.38;;;385.17;;
48361;SDS011;34510;51.888;5.670;2023-04-01T23:40:55;748.42;;;385.25;;
48361;SDS011;34510;51.888;5.670;2023-04-01T23:45:58;751.97;;;385.35;;
48361;SDS011;34510;51.888;5.670;2023-04-01T23:51:10;755.03;;;401.27;;
48361;SDS011;34510;51.888;5.670;2023-04-01T23:56:32;754.13;;;395.23;;
